sensor_id;sensor_type;location;lat;lon;timestamp;pressure;altitude;pressure_sealevel;temperature;humidity
65157;BME280;52745;49.794;18.258;2023-03-14T00:00:15;-16231.03;;;11.01;54.91
65157;BME280;52745;49.794;18.258;2023-03-14T00:03:05;-16229.09;;;10.93;55.05
65157;BME280;52745;49.794;18.258;2023-03-14T00:05:36;-16226.94;;;10.85;55.33
65157;BME280;52745;49.794;18.258;2023-03-14T00:08:06;-16225.72;;;10.81;55.29
65157;BME280;52745;49.794;18.258;2023-03-14T00:10:36;-16224.75;;;10.77;55.26
65157;BME280;52745;49.794;18.258;2023-03-14T00:13:07;-16224.06;;;10.74;55.51
65157;BME280;52745;49.794;18.258;2023-03-14T00:15:36;-16224.34;;;10.75;55.55
65157;BME280;52745;49.794;18.258;2023-03-14T00:18:03;-16225.16;;;10.79;55.45
65157;BME280;52745;49.794;18.258;2023-03-14T00:20:34;-16223.78;;;10.73;55.57
65157;BME280;52745;49.794;18.258;2023-03-14T00:23:07;-16223.78;;;10.73;55.45
65157;BME280;52745;49.794;18.258;2023-03-14T00:25:34;-16225.03;;;10.78;55.34
65157;BME280;52745;49.794;18.258;2023-03-14T00:28:02;-16226.38;;;10.83;55.25
65157;BME280;52745;49.794;18.258;2023-03-14T00:30:29;-16227.75;;;10.88;54.93
65157;BME280;52745;49.794;18.258;2023-03-14T00:32:58;-16227.19;;;10.86;55.07
65157;BME280;52745;49.794;18.258;2023-03-14T00:35:25;-16228.28;;;10.90;54.89
65157;BME280;52745;49.794;18.258;2023-03-14T00:37:53;-16227.06;;;10.86;55.09
65157;BME280;52745;49.794;18.258;2023-03-14T00:40:20;-16225.03;;;10.78;55.22
65157;BME280;52745;49.794;18.258;2023-03-14T00:42:49;-16223.53;;;10.72;55.34
65157;BME280;52745;49.794;18.258;2023-03-14T00:45:16;-16223.13;;;10.71;55.75
65157;BME280;52745;49.794;18.258;2023-03-14T00:47:43;-16220.13;;;10.60;56.10
65157;BME280;52745;49.794;18.258;2023-03-14T00:50:11;-16216.84;;;10.47;56.66
65157;BME280;52745;49.794;18.258;2023-03-14T00:52:39;-16216.31;;;10.45;56.78
65157;BME280;52745;49.794;18.258;2023-03-14T00:55:06;-16214.94;;;10.40;56.96
65157;BME280;52745;49.794;18.258;2023-03-14T00:57:34;-16214.53;;;10.39;56.88
65157;BME280;52745;49.794;18.258;2023-03-14T01:00:01;-16215.06;;;10.41;56.88
65157;BME280;52745;49.794;18.258;2023-03-14T01:02:32;-16215.22;;;10.41;56.88
65157;BME280;52745;49.794;18.258;2023-03-14T01:04:59;-16215.47;;;10.42;56.56
65157;BME280;52745;49.794;18.258;2023-03-14T01:07:26;-16216.03;;;10.44;56.54
65157;BME280;52745;49.794;18.258;2023-03-14T01:09:56;-16215.06;;;10.41;57.04
65157;BME280;52745;49.794;18.258;2023-03-14T01:12:23;-16212.75;;;10.32;57.23
65157;BME280;52745;49.794;18.258;2023-03-14T01:14:50;-16206.06;;;10.07;58.34
65157;BME280;52745;49.794;18.258;2023-03-14T01:17:19;-16206.34;;;10.08;57.79
65157;BME280;52745;49.794;18.258;2023-03-14T01:19:49;-16204.56;;;10.01;58.80
65157;BME280;52745;49.794;18.258;2023-03-14T01:22:16;-16207.69;;;10.13;57.65
65157;BME280;52745;49.794;18.258;2023-03-14T01:24:46;-16213.44;;;10.34;57.15
65157;BME280;52745;49.794;18.258;2023-03-14T01:27:16;-16214.53;;;10.39;56.70
65157;BME280;52745;49.794;18.258;2023-03-14T01:29:43;-16216.56;;;10.46;56.63
65157;BME280;52745;49.794;18.258;2023-03-14T01:32:11;-16219.97;;;10.59;56.07
65157;BME280;52745;49.794;18.258;2023-03-14T01:34:41;-16219.56;;;10.57;56.34
65157;BME280;52745;49.794;18.258;2023-03-14T01:37:11;-16218.34;;;10.53;56.38
65157;BME280;52745;49.794;18.258;2023-03-14T01:39:42;-16218.34;;;10.53;56.15
65157;BME280;52745;49.794;18.258;2023-03-14T01:42:23;-16216.31;;;10.45;56.50
65157;BME280;52745;49.794;18.258;2023-03-14T01:44:59;-16214.78;;;10.40;56.83
65157;BME280;52745;49.794;18.258;2023-03-14T01:47:34;-16213.84;;;10.36;56.68
65157;BME280;52745;49.794;18.258;2023-03-14T01:50:17;-16213.56;;;10.35;56.59
65157;BME280;52745;49.794;18.258;2023-03-14T01:52:47;-16213.03;;;10.33;56.78
65157;BME280;52745;49.794;18.258;2023-03-14T01:55:20;-16202.66;;;9.94;59.12
65157;BME280;52745;49.794;18.258;2023-03-14T01:58:13;-16186.28;;;9.32;60.80
65157;BME280;52745;49.794;18.258;2023-03-14T02:00:48;-16188.47;;;9.41;60.72
65157;BME280;52745;49.794;18.258;2023-03-14T02:03:16;-16189.16;;;9.43;60.96
65157;BME280;52745;49.794;18.258;2023-03-14T02:05:46;-16190.53;;;9.48;60.68
65157;BME280;52745;49.794;18.258;2023-03-14T02:08:20;-16192.56;;;9.56;60.59
65157;BME280;52745;49.794;18.258;2023-03-14T02:11:10;-16195.56;;;9.67;60.79
65157;BME280;52745;49.794;18.258;2023-03-14T02:13:55;-16195.84;;;9.68;60.71
65157;BME280;52745;49.794;18.258;2023-03-14T02:16:35;-16195.16;;;9.66;61.05
65157;BME280;52745;49.794;18.258;2023-03-14T02:19:40;-16196.66;;;9.71;60.89
65157;BME280;52745;49.794;18.258;2023-03-14T02:22:42;-16198.44;;;9.78;60.70
65157;BME280;52745;49.794;18.258;2023-03-14T02:27:55;-16201.84;;;9.91;60.07
65157;BME280;52745;49.794;18.258;2023-03-14T02:30:27;-16201.97;;;9.91;60.22
65157;BME280;52745;49.794;18.258;2023-03-14T02:33:04;-16202.78;;;9.94;59.81
65157;BME280;52745;49.794;18.258;2023-03-14T02:35:40;-16203.75;;;9.98;59.65
65157;BME280;52745;49.794;18.258;2023-03-14T02:41:01;-16206.34;;;10.08;59.39
65157;BME280;52745;49.794;18.258;2023-03-14T02:43:34;-16205.94;;;10.06;59.46
65157;BME280;52745;49.794;18.258;2023-03-14T02:46:11;-16205.94;;;10.06;59.35
65157;BME280;52745;49.794;18.258;2023-03-14T02:48:54;-16205.13;;;10.03;59.46
65157;BME280;52745;49.794;18.258;2023-03-14T02:51:29;-16206.22;;;10.07;59.32
65157;BME280;52745;49.794;18.258;2023-03-14T02:53:59;-16205.78;;;10.06;59.24
65157;BME280;52745;49.794;18.258;2023-03-14T02:56:26;-16205.53;;;10.05;59.32
65157;BME280;52745;49.794;18.258;2023-03-14T02:58:54;-16205.94;;;10.06;59.20
65157;BME280;52745;49.794;18.258;2023-03-14T03:01:35;-16205.38;;;10.04;59.41
65157;BME280;52745;49.794;18.258;2023-03-14T03:04:02;-16204.84;;;10.02;59.29
65157;BME280;52745;49.794;18.258;2023-03-14T03:06:31;-16205.38;;;10.04;58.87
65157;BME280;52745;49.794;18.258;2023-03-14T03:08:58;-16210.56;;;10.24;57.37
65157;BME280;52745;49.794;18.258;2023-03-14T03:11:25;-16216.16;;;10.45;56.30
65157;BME280;52745;49.794;18.258;2023-03-14T03:13:51;-16220.38;;;10.61;55.54
65157;BME280;52745;49.794;18.258;2023-03-14T03:16:19;-16224.88;;;10.77;55.31
65157;BME280;52745;49.794;18.258;2023-03-14T03:18:49;-16225.56;;;10.80;55.12
65157;BME280;52745;49.794;18.258;2023-03-14T03:21:17;-16227.47;;;10.87;54.76
65157;BME280;52745;49.794;18.258;2023-03-14T03:23:44;-16227.19;;;10.86;54.95
65157;BME280;52745;49.794;18.258;2023-03-14T03:26:12;-16226.38;;;10.83;55.12
65157;BME280;52745;49.794;18.258;2023-03-14T03:28:39;-16225.28;;;10.79;55.67
65157;BME280;52745;49.794;18.258;2023-03-14T03:31:09;-16224.75;;;10.77;55.49
65157;BME280;52745;49.794;18.258;2023-03-14T03:33:38;-16225.03;;;10.78;55.48
65157;BME280;52745;49.794;18.258;2023-03-14T03:36:06;-16224.47;;;10.76;55.48
65157;BME280;52745;49.794;18.258;2023-03-14T03:38:37;-16222.84;;;10.70;56.16
65157;BME280;52745;49.794;18.258;2023-03-14T03:41:06;-16221.75;;;10.66;56.34
65157;BME280;52745;49.794;18.258;2023-03-14T03:43:37;-16221.75;;;10.66;56.46
65157;BME280;52745;49.794;18.258;2023-03-14T03:46:07;-16221.22;;;10.64;56.52
65157;BME280;52745;49.794;18.258;2023-03-14T03:48:35;-16221.88;;;10.66;56.35
65157;BME280;52745;49.794;18.258;2023-03-14T03:51:11;-16222.97;;;10.70;56.38
65157;BME280;52745;49.794;18.258;2023-03-14T03:53:39;-16222.84;;;10.70;56.38
65157;BME280;52745;49.794;18.258;2023-03-14T03:56:13;-16223.38;;;10.72;56.27
65157;BME280;52745;49.794;18.258;2023-03-14T03:58:45;-16222.44;;;10.68;56.33
65157;BME280;52745;49.794;18.258;2023-03-14T04:01:15;-16220.53;;;10.61;56.95
65157;BME280;52745;49.794;18.258;2023-03-14T04:03:42;-16218.75;;;10.54;56.91
65157;BME280;52745;49.794;18.258;2023-03-14T04:06:11;-16217.66;;;10.50;56.84
65157;BME280;52745;49.794;18.258;2023-03-14T04:08:40;-16216.72;;;10.47;56.97
65157;BME280;52745;49.794;18.258;2023-03-14T04:11:13;-16215.06;;;10.41;57.34
65157;BME280;52745;49.794;18.258;2023-03-14T04:14:06;-16213.97;;;10.37;57.27
65157;BME280;52745;49.794;18.258;2023-03-14T04:16:34;-16213.16;;;10.33;57.46
65157;BME280;52745;49.794;18.258;2023-03-14T04:19:13;-16212.22;;;10.30;57.54
65157;BME280;52745;49.794;18.258;2023-03-14T04:21:43;-16212.47;;;10.31;57.32
65157;BME280;52745;49.794;18.258;2023-03-14T04:24:15;-16211.25;;;10.26;57.87
65157;BME280;52745;49.794;18.258;2023-03-14T04:26:55;-16210.97;;;10.25;57.73
65157;BME280;52745;49.794;18.258;2023-03-14T04:29:23;-16210.28;;;10.23;57.83
65157;BME280;52745;49.794;18.258;2023-03-14T04:31:50;-16210.56;;;10.24;57.83
65157;BME280;52745;49.794;18.258;2023-03-14T04:34:20;-16210.56;;;10.24;57.74
65157;BME280;52745;49.794;18.258;2023-03-14T04:36:52;-16210.44;;;10.23;57.86
65157;BME280;52745;49.794;18.258;2023-03-14T04:39:32;-16208.94;;;10.18;58.29
65157;BME280;52745;49.794;18.258;2023-03-14T04:42:18;-16209.22;;;10.19;58.12
65157;BME280;52745;49.794;18.258;2023-03-14T04:44:45;-16210.03;;;10.22;58.46
65157;BME280;52745;49.794;18.258;2023-03-14T04:47:20;-16209.59;;;10.20;58.06
65157;BME280;52745;49.794;18.258;2023-03-14T04:49:49;-16209.22;;;10.19;58.21
65157;BME280;52745;49.794;18.258;2023-03-14T04:52:17;-16208.38;;;10.15;58.30
65157;BME280;52745;49.794;18.258;2023-03-14T04:54:44;-16206.47;;;10.08;58.47
65157;BME280;52745;49.794;18.258;2023-03-14T04:57:11;-16207.28;;;10.11;58.33
65157;BME280;52745;49.794;18.258;2023-03-14T04:59:39;-16206.22;;;10.07;58.40
65157;BME280;52745;49.794;18.258;2023-03-14T05:02:21;-16206.75;;;10.09;58.30
65157;BME280;52745;49.794;18.258;2023-03-14T05:05:08;-16207.03;;;10.10;58.19
65157;BME280;52745;49.794;18.258;2023-03-14T05:07:44;-16206.75;;;10.09;58.35
65157;BME280;52745;49.794;18.258;2023-03-14T05:10:31;-16206.34;;;10.08;58.31
65157;BME280;52745;49.794;18.258;2023-03-14T05:13:27;-16206.22;;;10.07;58.22
65157;BME280;52745;49.794;18.258;2023-03-14T05:16:09;-16206.06;;;10.07;58.05
65157;BME280;52745;49.794;18.258;2023-03-14T05:19:02;-16206.75;;;10.09;58.15
65157;BME280;52745;49.794;18.258;2023-03-14T05:21:39;-16207.03;;;10.10;58.08
65157;BME280;52745;49.794;18.258;2023-03-14T05:24:19;-16207.28;;;10.11;58.32
65157;BME280;52745;49.794;18.258;2023-03-14T05:27:07;-16207.84;;;10.13;57.96
65157;BME280;52745;49.794;18.258;2023-03-14T05:30:07;-16208.13;;;10.14;58.17
65157;BME280;52745;49.794;18.258;2023-03-14T05:32:58;-16207.84;;;10.13;58.26
65157;BME280;52745;49.794;18.258;2023-03-14T05:35:40;-16208.94;;;10.18;58.27
65157;BME280;52745;49.794;18.258;2023-03-14T05:38:26;-16209.47;;;10.20;58.07
65157;BME280;52745;49.794;18.258;2023-03-14T05:41:09;-16210.03;;;10.22;58.26
65157;BME280;52745;49.794;18.258;2023-03-14T05:43:52;-16210.16;;;10.22;58.37
65157;BME280;52745;49.794;18.258;2023-03-14T05:46:48;-16210.56;;;10.24;58.42
65157;BME280;52745;49.794;18.258;2023-03-14T05:49:41;-16209.75;;;10.21;58.36
65157;BME280;52745;49.794;18.258;2023-03-14T05:52:14;-16210.28;;;10.23;58.38
65157;BME280;52745;49.794;18.258;2023-03-14T05:54:48;-16208.78;;;10.17;58.48
65157;BME280;52745;49.794;18.258;2023-03-14T05:57:34;-16208.25;;;10.15;58.79
65157;BME280;52745;49.794;18.258;2023-03-14T06:00:23;-16207.84;;;10.13;58.64
65157;BME280;52745;49.794;18.258;2023-03-14T06:03:04;-16212.06;;;10.29;64.94
65157;BME280;52745;49.794;18.258;2023-03-14T06:05:37;-16215.22;;;10.41;61.51
65157;BME280;52745;49.794;18.258;2023-03-14T06:08:04;-16217.25;;;10.49;60.58
65157;BME280;52745;49.794;18.258;2023-03-14T06:10:32;-16218.22;;;10.52;60.11
65157;BME280;52745;49.794;18.258;2023-03-14T06:13:01;-16218.75;;;10.54;59.45
65157;BME280;52745;49.794;18.258;2023-03-14T06:15:28;-16225.84;;;10.81;66.63
65157;BME280;52745;49.794;18.258;2023-03-14T06:17:57;-16224.47;;;10.76;59.90
65157;BME280;52745;49.794;18.258;2023-03-14T06:20:25;-16222.97;;;10.70;60.68
65157;BME280;52745;49.794;18.258;2023-03-14T06:22:52;-16225.84;;;10.81;59.77
65157;BME280;52745;49.794;18.258;2023-03-14T06:25:19;-16228.72;;;10.92;59.10
65157;BME280;52745;49.794;18.258;2023-03-14T06:27:51;-16223.94;;;10.74;58.09
65157;BME280;52745;49.794;18.258;2023-03-14T06:30:17;-16221.34;;;10.64;58.36
65157;BME280;52745;49.794;18.258;2023-03-14T06:32:45;-16221.63;;;10.65;58.17
65157;BME280;52745;49.794;18.258;2023-03-14T06:35:14;-16220.78;;;10.62;57.98
65157;BME280;52745;49.794;18.258;2023-03-14T06:37:44;-16221.47;;;10.65;58.12
65157;BME280;52745;49.794;18.258;2023-03-14T06:40:12;-16222.16;;;10.67;58.12
65157;BME280;52745;49.794;18.258;2023-03-14T06:43:08;-16224.06;;;10.74;57.81
65157;BME280;52745;49.794;18.258;2023-03-14T06:45:36;-16224.88;;;10.77;57.51
65157;BME280;52745;49.794;18.258;2023-03-14T06:48:04;-16224.88;;;10.77;57.59
65157;BME280;52745;49.794;18.258;2023-03-14T06:50:38;-16226.13;;;10.82;57.31
65157;BME280;52745;49.794;18.258;2023-03-14T06:53:05;-16225.72;;;10.81;57.38
65157;BME280;52745;49.794;18.258;2023-03-14T06:55:33;-16226.78;;;10.85;57.34
65157;BME280;52745;49.794;18.258;2023-03-14T06:58:00;-16229.94;;;10.96;56.95
65157;BME280;52745;49.794;18.258;2023-03-14T07:00:27;-16231.84;;;11.04;57.14
65157;BME280;52745;49.794;18.258;2023-03-14T07:02:56;-16234.56;;;11.14;56.51
65157;BME280;52745;49.794;18.258;2023-03-14T07:05:30;-16238.38;;;11.28;56.55
65157;BME280;52745;49.794;18.258;2023-03-14T07:07:57;-16240.28;;;11.35;56.43
65157;BME280;52745;49.794;18.258;2023-03-14T07:10:24;-16238.78;;;11.30;56.80
65157;BME280;52745;49.794;18.258;2023-03-14T07:12:51;-16240.16;;;11.35;56.86
65157;BME280;52745;49.794;18.258;2023-03-14T07:15:19;-16241.09;;;11.38;57.24
65157;BME280;52745;49.794;18.258;2023-03-14T07:17:51;-16242.34;;;11.43;57.04
65157;BME280;52745;49.794;18.258;2023-03-14T07:20:21;-16243.81;;;11.49;56.70
65157;BME280;52745;49.794;18.258;2023-03-14T07:22:48;-16246.00;;;11.57;56.55
65157;BME280;52745;49.794;18.258;2023-03-14T07:25:16;-16245.47;;;11.55;56.65
65157;BME280;52745;49.794;18.258;2023-03-14T07:27:45;-16245.59;;;11.55;56.67
65157;BME280;52745;49.794;18.258;2023-03-14T07:30:12;-16250.09;;;11.72;56.33
65157;BME280;52745;49.794;18.258;2023-03-14T07:32:39;-16252.56;;;11.81;55.82
65157;BME280;52745;49.794;18.258;2023-03-14T07:35:07;-16255.56;;;11.93;56.14
65157;BME280;52745;49.794;18.258;2023-03-14T07:37:36;-16257.06;;;11.98;55.82
65157;BME280;52745;49.794;18.258;2023-03-14T07:40:04;-16253.91;;;11.87;55.79
65157;BME280;52745;49.794;18.258;2023-03-14T07:42:33;-16255.56;;;11.93;55.57
65157;BME280;52745;49.794;18.258;2023-03-14T07:45:19;-16255.97;;;11.94;55.57
65157;BME280;52745;49.794;18.258;2023-03-14T07:47:45;-16258.28;;;12.03;55.45
65157;BME280;52745;49.794;18.258;2023-03-14T07:50:12;-16261.00;;;12.13;55.50
65157;BME280;52745;49.794;18.258;2023-03-14T07:52:39;-16266.84;;;12.35;54.87
65157;BME280;52745;49.794;18.258;2023-03-14T07:55:06;-16270.25;;;12.48;54.17
65157;BME280;52745;49.794;18.258;2023-03-14T07:57:33;-16271.91;;;12.54;53.63
65157;BME280;52745;49.794;18.258;2023-03-14T07:59:59;-16271.47;;;12.53;53.95
65157;BME280;52745;49.794;18.258;2023-03-14T08:02:26;-16275.16;;;12.67;54.19
65157;BME280;52745;49.794;18.258;2023-03-14T08:04:52;-16273.94;;;12.62;53.87
65157;BME280;52745;49.794;18.258;2023-03-14T08:07:19;-16270.53;;;12.49;54.15
65157;BME280;52745;49.794;18.258;2023-03-14T08:09:46;-16271.47;;;12.53;54.38
65157;BME280;52745;49.794;18.258;2023-03-14T08:12:13;-16267.41;;;12.37;54.29
65157;BME280;52745;49.794;18.258;2023-03-14T08:14:39;-16266.19;;;12.33;54.71
65157;BME280;52745;49.794;18.258;2023-03-14T08:17:06;-16266.72;;;12.35;55.14
65157;BME280;52745;49.794;18.258;2023-03-14T08:19:34;-16264.81;;;12.28;55.12
65157;BME280;52745;49.794;18.258;2023-03-14T08:22:01;-16264.69;;;12.27;55.76
65157;BME280;52745;49.794;18.258;2023-03-14T08:24:28;-16271.47;;;12.53;54.46
65157;BME280;52745;49.794;18.258;2023-03-14T08:26:55;-16282.66;;;12.95;53.77
65157;BME280;52745;49.794;18.258;2023-03-14T08:29:22;-16281.84;;;12.92;53.44
65157;BME280;52745;49.794;18.258;2023-03-14T08:31:48;-16279.78;;;12.84;53.84
65157;BME280;52745;49.794;18.258;2023-03-14T08:34:15;-16275.72;;;12.69;54.31
65157;BME280;52745;49.794;18.258;2023-03-14T08:36:42;-16279.25;;;12.82;54.02
65157;BME280;52745;49.794;18.258;2023-03-14T08:39:09;-16291.22;;;13.27;52.90
65157;BME280;52745;49.794;18.258;2023-03-14T08:41:36;-16312.06;;;14.05;50.81
65157;BME280;52745;49.794;18.258;2023-03-14T08:44:10;-16337.34;;;15.01;48.79
65157;BME280;52745;49.794;18.258;2023-03-14T08:46:40;-16332.31;;;14.82;49.09
65157;BME280;52745;49.794;18.258;2023-03-14T08:49:06;-16311.25;;;14.02;50.65
65157;BME280;52745;49.794;18.258;2023-03-14T08:51:33;-16303.75;;;13.74;51.50
65157;BME280;52745;49.794;18.258;2023-03-14T08:53:59;-16299.94;;;13.60;51.75
65157;BME280;52745;49.794;18.258;2023-03-14T08:56:26;-16325.78;;;14.57;49.55
65157;BME280;52745;49.794;18.258;2023-03-14T08:58:53;-16331.50;;;14.79;49.13
65157;BME280;52745;49.794;18.258;2023-03-14T09:01:20;-16347.81;;;15.40;47.40
65157;BME280;52745;49.794;18.258;2023-03-14T09:03:50;-16347.28;;;15.38;47.38
65157;BME280;52745;49.794;18.258;2023-03-14T09:06:17;-16354.88;;;15.67;46.27
65157;BME280;52745;49.794;18.258;2023-03-14T09:08:44;-16356.25;;;15.72;46.66
65157;BME280;52745;49.794;18.258;2023-03-14T09:11:11;-16363.88;;;16.01;45.77
65157;BME280;52745;49.794;18.258;2023-03-14T09:13:38;-16337.22;;;15.00;47.79
65157;BME280;52745;49.794;18.258;2023-03-14T09:16:06;-16319.53;;;14.34;49.75
65157;BME280;52745;49.794;18.258;2023-03-14T09:18:33;-16315.19;;;14.17;50.49
65157;BME280;52745;49.794;18.258;2023-03-14T09:21:00;-16302.94;;;13.71;51.65
65157;BME280;52745;49.794;18.258;2023-03-14T09:23:26;-16297.22;;;13.50;52.26
65157;BME280;52745;49.794;18.258;2023-03-14T09:25:57;-16288.78;;;13.18;53.67
65157;BME280;52745;49.794;18.258;2023-03-14T09:28:25;-16286.34;;;13.09;54.42
65157;BME280;52745;49.794;18.258;2023-03-14T09:30:52;-16281.69;;;12.91;54.55
65157;BME280;52745;49.794;18.258;2023-03-14T09:33:18;-16279.66;;;12.83;55.02
65157;BME280;52745;49.794;18.258;2023-03-14T09:35:45;-16274.63;;;12.65;55.13
65157;BME280;52745;49.794;18.258;2023-03-14T09:38:12;-16272.31;;;12.56;55.55
65157;BME280;52745;49.794;18.258;2023-03-14T09:40:40;-16268.34;;;12.41;56.21
65157;BME280;52745;49.794;18.258;2023-03-14T09:43:10;-16264.53;;;12.27;56.59
65157;BME280;52745;49.794;18.258;2023-03-14T09:45:39;-16263.19;;;12.21;56.74
65157;BME280;52745;49.794;18.258;2023-03-14T09:48:29;-16260.47;;;12.11;57.21
65157;BME280;52745;49.794;18.258;2023-03-14T09:50:58;-16259.38;;;12.07;57.50
65157;BME280;52745;49.794;18.258;2023-03-14T09:53:38;-16260.19;;;12.10;57.76
65157;BME280;52745;49.794;18.258;2023-03-14T09:56:19;-16258.69;;;12.05;57.89
65157;BME280;52745;49.794;18.258;2023-03-14T09:58:52;-16258.28;;;12.03;58.32
65157;BME280;52745;49.794;18.258;2023-03-14T10:01:32;-16258.53;;;12.04;58.01
65157;BME280;52745;49.794;18.258;2023-03-14T10:04:04;-16256.91;;;11.98;58.21
65157;BME280;52745;49.794;18.258;2023-03-14T10:06:33;-16257.59;;;12.00;58.33
65157;BME280;52745;49.794;18.258;2023-03-14T10:09:02;-16256.91;;;11.98;58.52
65157;BME280;52745;49.794;18.258;2023-03-14T10:11:29;-16254.19;;;11.88;58.88
65157;BME280;52745;49.794;18.258;2023-03-14T10:16:36;-16253.63;;;11.86;58.92
65157;BME280;52745;49.794;18.258;2023-03-14T10:19:10;-16254.19;;;11.88;58.91
65157;BME280;52745;49.794;18.258;2023-03-14T10:21:50;-16252.56;;;11.81;59.60
65157;BME280;52745;49.794;18.258;2023-03-14T10:24:28;-16252.28;;;11.80;60.16
65157;BME280;52745;49.794;18.258;2023-03-14T10:27:05;-16250.66;;;11.74;61.15
65157;BME280;52745;49.794;18.258;2023-03-14T10:29:33;-16252.56;;;11.81;61.17
65157;BME280;52745;49.794;18.258;2023-03-14T10:32:03;-16248.75;;;11.67;60.06
65157;BME280;52745;49.794;18.258;2023-03-14T10:34:33;-16247.25;;;11.62;60.50
65157;BME280;52745;49.794;18.258;2023-03-14T10:37:07;-16248.47;;;11.66;60.92
65157;BME280;52745;49.794;18.258;2023-03-14T10:39:50;-16249.41;;;11.70;60.58
65157;BME280;52745;49.794;18.258;2023-03-14T10:42:27;-16253.09;;;11.84;60.34
65157;BME280;52745;49.794;18.258;2023-03-14T10:45:03;-16260.72;;;12.12;59.54
65157;BME280;52745;49.794;18.258;2023-03-14T10:47:32;-16267.53;;;12.38;59.21
65157;BME280;52745;49.794;18.258;2023-03-14T10:50:24;-16267.25;;;12.37;59.04
65157;BME280;52745;49.794;18.258;2023-03-14T10:52:52;-16270.53;;;12.49;58.74
65157;BME280;52745;49.794;18.258;2023-03-14T10:55:20;-16271.22;;;12.52;58.81
65157;BME280;52745;49.794;18.258;2023-03-14T10:57:47;-16271.09;;;12.51;58.68
65157;BME280;52745;49.794;18.258;2023-03-14T11:00:19;-16269.44;;;12.45;59.58
65157;BME280;52745;49.794;18.258;2023-03-14T11:03:12;-16265.34;;;12.30;60.04
65157;BME280;52745;49.794;18.258;2023-03-14T11:05:49;-16262.38;;;12.18;61.53
65157;BME280;52745;49.794;18.258;2023-03-14T11:08:25;-16257.31;;;11.99;62.98
65157;BME280;52745;49.794;18.258;2023-03-14T11:11:16;-16255.56;;;11.93;64.77
65157;BME280;52745;49.794;18.258;2023-03-14T11:19:50;-16249.16;;;11.69;68.34
65157;BME280;52745;49.794;18.258;2023-03-14T11:22:36;-16243.81;;;11.49;68.66
65157;BME280;52745;49.794;18.258;2023-03-14T11:25:26;-16244.09;;;11.50;70.25
65157;BME280;52745;49.794;18.258;2023-03-14T11:30:39;-16236.34;;;11.21;71.39
65157;BME280;52745;49.794;18.258;2023-03-14T11:33:17;-16237.97;;;11.27;72.21
65157;BME280;52745;49.794;18.258;2023-03-14T11:41:32;-16250.38;;;11.73;72.50
65157;BME280;52745;49.794;18.258;2023-03-14T11:44:08;-16252.41;;;11.81;72.32
65157;BME280;52745;49.794;18.258;2023-03-14T11:46:41;-16248.31;;;11.66;73.26
65157;BME280;52745;49.794;18.258;2023-03-14T11:49:27;-16248.47;;;11.66;74.66
65157;BME280;52745;49.794;18.258;2023-03-14T11:51:59;-16251.19;;;11.76;75.10
65157;BME280;52745;49.794;18.258;2023-03-14T11:57:09;-16234.44;;;11.13;78.43
65157;BME280;52745;49.794;18.258;2023-03-14T12:05:22;-16236.47;;;11.21;79.85
65157;BME280;52745;49.794;18.258;2023-03-14T12:10:53;-16236.19;;;11.20;80.49
65157;BME280;52745;49.794;18.258;2023-03-14T12:13:21;-16234.16;;;11.12;80.83
65157;BME280;52745;49.794;18.258;2023-03-14T12:15:49;-16232.78;;;11.07;81.73
65157;BME280;52745;49.794;18.258;2023-03-14T12:21:01;-16225.03;;;10.78;83.24
65157;BME280;52745;49.794;18.258;2023-03-14T12:23:34;-16223.66;;;10.73;83.96
65157;BME280;52745;49.794;18.258;2023-03-14T12:28:50;-16221.22;;;10.64;84.80
65157;BME280;52745;49.794;18.258;2023-03-14T12:34:02;-16220.94;;;10.63;85.62
65157;BME280;52745;49.794;18.258;2023-03-14T12:39:39;-16222.84;;;10.70;85.87
65157;BME280;52745;49.794;18.258;2023-03-14T12:44:44;-16223.66;;;10.73;86.55
65157;BME280;52745;49.794;18.258;2023-03-14T12:49:52;-16221.63;;;10.65;87.48
65157;BME280;52745;49.794;18.258;2023-03-14T12:52:30;-16220.53;;;10.61;87.37
65157;BME280;52745;49.794;18.258;2023-03-14T12:55:12;-16217.13;;;10.48;88.82
65157;BME280;52745;49.794;18.258;2023-03-14T13:00:39;-16216.84;;;10.47;89.55
65157;BME280;52745;49.794;18.258;2023-03-14T13:03:19;-16216.16;;;10.45;89.97
65157;BME280;52745;49.794;18.258;2023-03-14T13:05:52;-16212.63;;;10.31;90.33
65157;BME280;52745;49.794;18.258;2023-03-14T13:08:35;-16212.22;;;10.30;91.26
65157;BME280;52745;49.794;18.258;2023-03-14T13:11:05;-16212.22;;;10.30;91.95
65157;BME280;52745;49.794;18.258;2023-03-14T13:13:35;-16210.97;;;10.25;92.18
65157;BME280;52745;49.794;18.258;2023-03-14T13:16:03;-16207.28;;;10.11;92.97
65157;BME280;52745;49.794;18.258;2023-03-14T13:18:34;-16209.88;;;10.21;93.62
65157;BME280;52745;49.794;18.258;2023-03-14T13:21:11;-16208.38;;;10.15;94.21
65157;BME280;52745;49.794;18.258;2023-03-14T13:23:39;-16209.59;;;10.20;94.72
65157;BME280;52745;49.794;18.258;2023-03-14T13:26:13;-16209.34;;;10.19;95.05
65157;BME280;52745;49.794;18.258;2023-03-14T13:28:41;-16208.66;;;10.17;96.11
65157;BME280;52745;49.794;18.258;2023-03-14T13:31:24;-16207.03;;;10.10;96.86
65157;BME280;52745;49.794;18.258;2023-03-14T13:34:01;-16207.28;;;10.11;97.08
65157;BME280;52745;49.794;18.258;2023-03-14T13:36:29;-16207.03;;;10.10;96.57
65157;BME280;52745;49.794;18.258;2023-03-14T13:39:01;-16204.56;;;10.01;97.48
65157;BME280;52745;49.794;18.258;2023-03-14T13:41:29;-16205.94;;;10.06;97.58
65157;BME280;52745;49.794;18.258;2023-03-14T13:44:03;-16206.22;;;10.07;97.47
65157;BME280;52745;49.794;18.258;2023-03-14T13:46:34;-16206.47;;;10.08;97.79
65157;BME280;52745;49.794;18.258;2023-03-14T13:49:03;-16208.94;;;10.18;96.77
65157;BME280;52745;49.794;18.258;2023-03-14T13:51:31;-16208.25;;;10.15;96.65
65157;BME280;52745;49.794;18.258;2023-03-14T13:54:01;-16210.16;;;10.22;96.19
65157;BME280;52745;49.794;18.258;2023-03-14T13:56:32;-16212.75;;;10.32;96.49
65157;BME280;52745;49.794;18.258;2023-03-14T13:58:59;-16209.75;;;10.21;95.38